Terminal Aerodrome Forecast
Issued by NWS

Home | Current Version | Previous Version | Graphics & Text | Print | Product List | Glossary Off
Versions: 1 2 3 4 5 6 7 8 9 10 11 12 13 14 15 16 17 18 19 20 21 22 23 24 25 26 27 28 29 30 31 32 33 34 35 36 37 38

000
FTUS43 KDDC 152320
TAFHYS
TAF
KHYS 152320Z 1600/1624 13017KT P6SM BKN040
     FM160400 11010KT P6SM VCTS BKN035CB
     FM160800 11010KT 4SM BR BKN025
     FM160900 12012KT 1SM BR BKN007
     FM161500 13013KT P6SM BKN050=

USA.gov is the U.S. government's official web portal to all federal, state and local government web resources and services.